sensor_id;sensor_type;location;lat;lon;timestamp;pressure;altitude;pressure_sealevel;temperature;humidity
75891;BME280;64571;47.512;19.054;2024-02-26T00:01:51;99669.16;;;10.04;100.00
75891;BME280;64571;47.512;19.054;2024-02-26T00:04:54;99664.72;;;10.03;100.00
75891;BME280;64571;47.512;19.054;2024-02-26T00:07:57;99680.06;;;10.01;100.00
75891;BME280;64571;47.512;19.054;2024-02-26T00:11:02;99680.19;;;9.96;100.00
75891;BME280;64571;47.512;19.054;2024-02-26T00:14:04;99667.84;;;9.88;100.00
75891;BME280;64571;47.512;19.054;2024-02-26T00:17:07;99668.88;;;9.92;100.00
75891;BME280;64571;47.512;19.054;2024-02-26T00:20:10;99668.34;;;9.90;100.00
75891;BME280;64571;47.512;19.054;2024-02-26T00:23:15;99657.16;;;9.81;100.00
75891;BME280;64571;47.512;19.054;2024-02-26T00:26:17;99655.63;;;9.75;100.00
75891;BME280;64571;47.512;19.054;2024-02-26T00:29:20;99675.97;;;9.84;100.00
75891;BME280;64571;47.512;19.054;2024-02-26T00:32:23;99665.87;;;9.88;100.00
75891;BME280;64571;47.512;19.054;2024-02-26T00:35:26;99661.03;;;9.94;100.00
75891;BME280;64571;47.512;19.054;2024-02-26T00:38:29;99662.50;;;9.92;100.00
75891;BME280;64571;47.512;19.054;2024-02-26T00:41:31;99662.41;;;9.83;100.00
75891;BME280;64571;47.512;19.054;2024-02-26T00:44:34;99650.66;;;9.86;100.00
75891;BME280;64571;47.512;19.054;2024-02-26T00:47:37;99647.47;;;9.93;100.00
75891;BME280;64571;47.512;19.054;2024-02-26T00:50:40;99653.84;;;9.93;100.00
75891;BME280;64571;47.512;19.054;2024-02-26T00:53:42;99649.66;;;9.96;100.00
75891;BME280;64571;47.512;19.054;2024-02-26T00:56:45;99630.13;;;9.87;100.00
75891;BME280;64571;47.512;19.054;2024-02-26T00:59:47;99632.91;;;9.87;100.00
75891;BME280;64571;47.512;19.054;2024-02-26T01:02:50;99647.97;;;9.95;100.00
75891;BME280;64571;47.512;19.054;2024-02-26T01:05:53;99624.09;;;9.71;100.00
75891;BME280;64571;47.512;19.054;2024-02-26T01:09:00;99618.44;;;9.76;100.00
75891;BME280;64571;47.512;19.054;2024-02-26T01:12:03;99633.00;;;9.96;100.00
75891;BME280;64571;47.512;19.054;2024-02-26T01:15:06;99634.75;;;9.92;100.00
75891;BME280;64571;47.512;19.054;2024-02-26T01:18:09;99639.47;;;9.91;100.00
75891;BME280;64571;47.512;19.054;2024-02-26T01:21:12;99622.09;;;9.85;100.00
75891;BME280;64571;47.512;19.054;2024-02-26T01:24:15;99630.72;;;9.98;100.00
75891;BME280;64571;47.512;19.054;2024-02-26T01:27:17;99633.28;;;9.94;100.00
75891;BME280;64571;47.512;19.054;2024-02-26T01:30:20;99630.00;;;9.92;100.00
75891;BME280;64571;47.512;19.054;2024-02-26T01:33:23;99629.81;;;9.88;100.00
75891;BME280;64571;47.512;19.054;2024-02-26T01:36:25;99628.88;;;9.93;100.00
75891;BME280;64571;47.512;19.054;2024-02-26T01:39:28;99619.72;;;9.93;100.00
75891;BME280;64571;47.512;19.054;2024-02-26T01:42:32;99616.94;;;9.93;100.00
75891;BME280;64571;47.512;19.054;2024-02-26T01:45:35;99617.44;;;9.95;100.00
75891;BME280;64571;47.512;19.054;2024-02-26T01:48:37;99613.47;;;9.87;100.00
75891;BME280;64571;47.512;19.054;2024-02-26T01:51:41;99612.41;;;9.97;100.00
75891;BME280;64571;47.512;19.054;2024-02-26T01:54:46;99621.25;;;9.99;100.00
75891;BME280;64571;47.512;19.054;2024-02-26T01:57:49;99600.91;;;9.89;100.00
75891;BME280;64571;47.512;19.054;2024-02-26T02:00:54;99604.22;;;9.92;100.00
75891;BME280;64571;47.512;19.054;2024-02-26T02:03:58;99614.56;;;10.00;100.00
75891;BME280;64571;47.512;19.054;2024-02-26T02:07:02;99613.84;;;9.94;100.00
75891;BME280;64571;47.512;19.054;2024-02-26T02:10:05;99609.88;;;9.86;100.00
75891;BME280;64571;47.512;19.054;2024-02-26T02:13:08;99589.44;;;9.82;100.00
75891;BME280;64571;47.512;19.054;2024-02-26T02:16:10;99596.63;;;9.83;100.00
75891;BME280;64571;47.512;19.054;2024-02-26T02:19:13;99600.78;;;9.95;100.00
75891;BME280;64571;47.512;19.054;2024-02-26T02:22:16;99592.59;;;9.89;100.00
75891;BME280;64571;47.512;19.054;2024-02-26T02:25:18;99606.78;;;9.88;100.00
75891;BME280;64571;47.512;19.054;2024-02-26T02:28:21;99604.50;;;9.90;100.00
75891;BME280;64571;47.512;19.054;2024-02-26T02:31:24;99617.84;;;10.02;100.00
75891;BME280;64571;47.512;19.054;2024-02-26T02:34:27;99620.00;;;10.05;100.00
75891;BME280;64571;47.512;19.054;2024-02-26T02:37:30;99623.78;;;10.09;100.00
75891;BME280;64571;47.512;19.054;2024-02-26T02:40:33;99602.00;;;10.02;100.00
75891;BME280;64571;47.512;19.054;2024-02-26T02:43:35;99621.38;;;10.16;100.00
75891;BME280;64571;47.512;19.054;2024-02-26T02:46:38;99606.00;;;10.10;100.00
75891;BME280;64571;47.512;19.054;2024-02-26T02:49:41;99598.81;;;10.09;100.00
75891;BME280;64571;47.512;19.054;2024-02-26T02:52:43;99616.03;;;10.20;100.00
75891;BME280;64571;47.512;19.054;2024-02-26T02:55:46;99613.19;;;10.11;100.00
75891;BME280;64571;47.512;19.054;2024-02-26T02:58:49;99606.13;;;10.05;100.00
75891;BME280;64571;47.512;19.054;2024-02-26T03:01:51;99622.84;;;10.13;100.00
75891;BME280;64571;47.512;19.054;2024-02-26T03:04:54;99602.53;;;10.04;100.00
75891;BME280;64571;47.512;19.054;2024-02-26T03:07:56;99616.16;;;10.14;100.00
75891;BME280;64571;47.512;19.054;2024-02-26T03:10:59;99616.97;;;10.15;100.00
75891;BME280;64571;47.512;19.054;2024-02-26T03:14:02;99598.63;;;10.05;100.00
75891;BME280;64571;47.512;19.054;2024-02-26T03:17:04;99610.28;;;10.16;100.00
75891;BME280;64571;47.512;19.054;2024-02-26T03:20:08;99611.09;;;10.17;100.00
75891;BME280;64571;47.512;19.054;2024-02-26T03:23:12;99621.59;;;10.20;100.00
75891;BME280;64571;47.512;19.054;2024-02-26T03:26:17;99618.19;;;10.23;100.00
75891;BME280;64571;47.512;19.054;2024-02-26T03:29:20;99602.06;;;10.11;100.00
75891;BME280;64571;47.512;19.054;2024-02-26T03:32:22;99614.88;;;10.21;100.00
75891;BME280;64571;47.512;19.054;2024-02-26T03:35:25;99606.56;;;10.21;100.00
75891;BME280;64571;47.512;19.054;2024-02-26T03:38:29;99610.91;;;10.13;100.00
75891;BME280;64571;47.512;19.054;2024-02-26T03:41:31;99609.94;;;10.18;100.00
75891;BME280;64571;47.512;19.054;2024-02-26T03:44:34;99593.34;;;10.04;100.00
75891;BME280;64571;47.512;19.054;2024-02-26T03:47:40;99587.50;;;10.05;100.00
75891;BME280;64571;47.512;19.054;2024-02-26T03:50:43;99601.06;;;10.07;100.00
75891;BME280;64571;47.512;19.054;2024-02-26T03:53:45;99599.09;;;10.07;100.00
75891;BME280;64571;47.512;19.054;2024-02-26T03:56:48;99596.53;;;10.11;100.00
75891;BME280;64571;47.512;19.054;2024-02-26T03:59:51;99577.16;;;9.97;100.00
75891;BME280;64571;47.512;19.054;2024-02-26T04:02:53;99581.25;;;10.00;100.00
75891;BME280;64571;47.512;19.054;2024-02-26T04:05:56;99586.81;;;10.00;100.00
75891;BME280;64571;47.512;19.054;2024-02-26T04:08:58;99591.22;;;10.01;100.00
75891;BME280;64571;47.512;19.054;2024-02-26T04:12:01;99599.22;;;10.02;100.00
75891;BME280;64571;47.512;19.054;2024-02-26T04:15:04;99604.47;;;10.04;100.00
75891;BME280;64571;47.512;19.054;2024-02-26T04:18:07;99602.53;;;10.04;100.00
75891;BME280;64571;47.512;19.054;2024-02-26T04:21:10;99592.53;;;10.03;100.00
75891;BME280;64571;47.512;19.054;2024-02-26T04:24:13;99582.81;;;9.92;100.00
75891;BME280;64571;47.512;19.054;2024-02-26T04:27:15;99587.25;;;9.93;100.00
75891;BME280;64571;47.512;19.054;2024-02-26T04:30:18;99592.28;;;9.91;100.00
75891;BME280;64571;47.512;19.054;2024-02-26T04:33:20;99597.59;;;10.01;100.00
75891;BME280;64571;47.512;19.054;2024-02-26T04:36:23;99600.03;;;10.03;100.00
75891;BME280;64571;47.512;19.054;2024-02-26T04:39:28;99592.84;;;10.02;100.00
75891;BME280;64571;47.512;19.054;2024-02-26T04:42:30;99595.75;;;9.97;100.00
75891;BME280;64571;47.512;19.054;2024-02-26T04:45:33;99594.75;;;9.93;100.00
75891;BME280;64571;47.512;19.054;2024-02-26T04:48:36;99591.97;;;9.93;100.00
75891;BME280;64571;47.512;19.054;2024-02-26T04:51:38;99607.06;;;10.00;100.00
75891;BME280;64571;47.512;19.054;2024-02-26T04:54:43;99577.06;;;9.88;100.00
75891;BME280;64571;47.512;19.054;2024-02-26T04:57:46;99568.75;;;9.88;100.00
75891;BME280;64571;47.512;19.054;2024-02-26T05:00:48;99588.56;;;9.96;100.00
75891;BME280;64571;47.512;19.054;2024-02-26T05:03:51;99563.44;;;9.78;100.00
75891;BME280;64571;47.512;19.054;2024-02-26T05:06:54;99569.00;;;9.78;100.00
75891;BME280;64571;47.512;19.054;2024-02-26T05:09:56;99579.97;;;9.83;100.00
75891;BME280;64571;47.512;19.054;2024-02-26T05:12:59;99576.38;;;9.83;100.00
75891;BME280;64571;47.512;19.054;2024-02-26T05:16:01;99565.00;;;9.71;100.00
75891;BME280;64571;47.512;19.054;2024-02-26T05:19:04;99587.78;;;9.81;100.00
75891;BME280;64571;47.512;19.054;2024-02-26T05:22:08;99590.13;;;9.88;100.00
75891;BME280;64571;47.512;19.054;2024-02-26T05:25:11;99584.06;;;9.86;100.00
75891;BME280;64571;47.512;19.054;2024-02-26T05:28:13;99582.63;;;9.88;100.00
75891;BME280;64571;47.512;19.054;2024-02-26T05:31:18;99588.19;;;9.88;100.00
75891;BME280;64571;47.512;19.054;2024-02-26T05:34:21;99582.87;;;9.78;100.00
75891;BME280;64571;47.512;19.054;2024-02-26T05:37:24;99587.78;;;9.81;100.00
75891;BME280;64571;47.512;19.054;2024-02-26T05:40:27;99583.06;;;9.82;100.00
75891;BME280;64571;47.512;19.054;2024-02-26T05:43:30;99578.84;;;9.84;100.00
75891;BME280;64571;47.512;19.054;2024-02-26T05:46:32;99557.25;;;9.81;100.00
75891;BME280;64571;47.512;19.054;2024-02-26T05:49:35;99585.91;;;9.90;100.00
75891;BME280;64571;47.512;19.054;2024-02-26T05:52:37;99568.34;;;9.81;100.00
75891;BME280;64571;47.512;19.054;2024-02-26T05:55:43;99584.25;;;9.89;100.00
75891;BME280;64571;47.512;19.054;2024-02-26T05:58:45;99580.34;;;9.90;100.00
75891;BME280;64571;47.512;19.054;2024-02-26T06:01:48;99585.81;;;9.96;100.00
75891;BME280;64571;47.512;19.054;2024-02-26T06:04:50;99588.75;;;9.99;100.00
75891;BME280;64571;47.512;19.054;2024-02-26T06:07:52;99577.91;;;9.89;100.00
75891;BME280;64571;47.512;19.054;2024-02-26T06:10:55;99589.87;;;9.98;100.00
75891;BME280;64571;47.512;19.054;2024-02-26T06:13:58;99589.87;;;9.98;100.00
75891;BME280;64571;47.512;19.054;2024-02-26T06:17:05;99598.91;;;10.04;100.00
75891;BME280;64571;47.512;19.054;2024-02-26T06:20:09;99587.44;;;9.97;100.00
75891;BME280;64571;47.512;19.054;2024-02-26T06:23:15;99586.41;;;9.93;100.00
75891;BME280;64571;47.512;19.054;2024-02-26T06:26:18;99584.13;;;9.95;100.00
75891;BME280;64571;47.512;19.054;2024-02-26T06:29:20;99616.16;;;10.14;100.00
75891;BME280;64571;47.512;19.054;2024-02-26T06:32:23;99611.03;;;10.08;100.00
75891;BME280;64571;47.512;19.054;2024-02-26T06:35:26;99601.06;;;10.07;100.00
75891;BME280;64571;47.512;19.054;2024-02-26T06:38:29;99612.44;;;10.19;100.00
75891;BME280;64571;47.512;19.054;2024-02-26T06:41:32;99618.72;;;10.11;100.00
75891;BME280;64571;47.512;19.054;2024-02-26T06:44:34;99625.72;;;10.08;100.00
75891;BME280;64571;47.512;19.054;2024-02-26T06:47:37;99613.19;;;10.11;100.00
75891;BME280;64571;47.512;19.054;2024-02-26T06:50:39;99597.72;;;9.96;100.00
75891;BME280;64571;47.512;19.054;2024-02-26T06:53:44;99612.16;;;10.07;100.00
75891;BME280;64571;47.512;19.054;2024-02-26T06:56:46;99585.34;;;10.02;100.00
75891;BME280;64571;47.512;19.054;2024-02-26T06:59:49;99611.50;;;10.24;100.00
75891;BME280;64571;47.512;19.054;2024-02-26T07:02:52;99609.25;;;10.26;100.00
75891;BME280;64571;47.512;19.054;2024-02-26T07:05:54;99612.34;;;10.24;100.00
75891;BME280;64571;47.512;19.054;2024-02-26T07:08:57;99608.28;;;10.30;100.00
75891;BME280;64571;47.512;19.054;2024-02-26T07:12:00;99622.31;;;10.48;100.00
75891;BME280;64571;47.512;19.054;2024-02-26T07:15:03;99618.91;;;10.51;100.00
75891;BME280;64571;47.512;19.054;2024-02-26T07:18:06;99613.47;;;10.46;100.00
75891;BME280;64571;47.512;19.054;2024-02-26T07:21:09;99600.16;;;10.34;100.00
75891;BME280;64571;47.512;19.054;2024-02-26T07:24:12;99604.31;;;10.45;100.00
75891;BME280;64571;47.512;19.054;2024-02-26T07:27:15;99621.72;;;10.59;100.00
75891;BME280;64571;47.512;19.054;2024-02-26T07:30:20;99626.28;;;10.55;100.00
75891;BME280;64571;47.512;19.054;2024-02-26T07:33:22;99625.88;;;10.71;100.00
75891;BME280;64571;47.512;19.054;2024-02-26T07:36:25;99623.91;;;10.71;100.00
75891;BME280;64571;47.512;19.054;2024-02-26T07:39:28;99624.66;;;10.85;100.00
75891;BME280;64571;47.512;19.054;2024-02-26T07:42:31;99624.38;;;10.96;100.00
75891;BME280;64571;47.512;19.054;2024-02-26T07:45:34;99620.69;;;11.09;100.00
75891;BME280;64571;47.512;19.054;2024-02-26T07:48:38;99628.22;;;11.08;99.48
75891;BME280;64571;47.512;19.054;2024-02-26T07:51:41;99627.72;;;11.15;99.21
75891;BME280;64571;47.512;19.054;2024-02-26T07:54:44;99633.09;;;11.11;99.56
75891;BME280;64571;47.512;19.054;2024-02-26T07:57:46;99627.25;;;11.13;99.10
75891;BME280;64571;47.512;19.054;2024-02-26T08:00:49;99626.25;;;11.09;99.17
75891;BME280;64571;47.512;19.054;2024-02-26T08:03:53;99633.50;;;11.27;98.46
75891;BME280;64571;47.512;19.054;2024-02-26T08:06:56;99640.56;;;11.33;98.04
75891;BME280;64571;47.512;19.054;2024-02-26T08:09:59;99646.50;;;11.40;98.30
75891;BME280;64571;47.512;19.054;2024-02-26T08:13:01;99650.41;;;11.48;98.37
75891;BME280;64571;47.512;19.054;2024-02-26T08:16:10;99639.81;;;11.50;97.74
75891;BME280;64571;47.512;19.054;2024-02-26T08:19:12;99651.53;;;11.38;97.03
75891;BME280;64571;47.512;19.054;2024-02-26T08:22:17;99656.13;;;11.43;97.17
75891;BME280;64571;47.512;19.054;2024-02-26T08:25:20;99650.41;;;11.39;96.94
75891;BME280;64571;47.512;19.054;2024-02-26T08:28:22;99645.25;;;11.64;96.63
75891;BME280;64571;47.512;19.054;2024-02-26T08:31:25;99652.63;;;11.77;95.41
75891;BME280;64571;47.512;19.054;2024-02-26T08:34:29;99652.94;;;11.67;94.07
75891;BME280;64571;47.512;19.054;2024-02-26T08:37:32;99635.91;;;11.60;94.66
75891;BME280;64571;47.512;19.054;2024-02-26T08:40:34;99641.84;;;11.76;94.61
75891;BME280;64571;47.512;19.054;2024-02-26T08:43:37;99645.72;;;11.66;94.39
75891;BME280;64571;47.512;19.054;2024-02-26T08:46:40;99645.25;;;11.73;94.69
75891;BME280;64571;47.512;19.054;2024-02-26T08:49:44;99624.44;;;11.53;94.12
75891;BME280;64571;47.512;19.054;2024-02-26T08:52:47;99643.94;;;11.70;94.58
75891;BME280;64571;47.512;19.054;2024-02-26T08:55:52;99638.03;;;11.54;94.70
75891;BME280;64571;47.512;19.054;2024-02-26T08:58:55;99649.34;;;11.58;95.32
75891;BME280;64571;47.512;19.054;2024-02-26T09:01:59;99647.69;;;11.65;95.60
75891;BME280;64571;47.512;19.054;2024-02-26T09:05:02;99654.41;;;11.64;95.25
75891;BME280;64571;47.512;19.054;2024-02-26T09:08:05;99654.75;;;11.72;95.15
75891;BME280;64571;47.512;19.054;2024-02-26T09:11:08;99652.75;;;11.55;95.46
75891;BME280;64571;47.512;19.054;2024-02-26T09:14:12;99636.38;;;11.53;96.02
75891;BME280;64571;47.512;19.054;2024-02-26T09:17:15;99654.06;;;11.66;95.46
75891;BME280;64571;47.512;19.054;2024-02-26T09:20:17;99644.44;;;11.72;95.23
75891;BME280;64571;47.512;19.054;2024-02-26T09:23:22;99648.97;;;11.51;95.46
75891;BME280;64571;47.512;19.054;2024-02-26T09:26:25;99669.81;;;11.71;95.61
75891;BME280;64571;47.512;19.054;2024-02-26T09:29:27;99667.19;;;11.74;95.06
75891;BME280;64571;47.512;19.054;2024-02-26T09:32:30;99647.53;;;11.71;95.27
75891;BME280;64571;47.512;19.054;2024-02-26T09:35:33;99668.75;;;11.98;95.17
75891;BME280;64571;47.512;19.054;2024-02-26T09:38:36;99663.03;;;12.03;94.33
75891;BME280;64571;47.512;19.054;2024-02-26T09:41:57;99668.63;;;12.11;94.23
75891;BME280;64571;47.512;19.054;2024-02-26T09:45:05;99671.53;;;12.15;93.50
75891;BME280;64571;47.512;19.054;2024-02-26T09:48:12;99654.03;;;12.14;93.34
75891;BME280;64571;47.512;19.054;2024-02-26T09:51:16;99671.56;;;12.32;92.86
75891;BME280;64571;47.512;19.054;2024-02-26T09:54:20;99672.22;;;12.03;92.30
75891;BME280;64571;47.512;19.054;2024-02-26T09:57:23;99661.22;;;12.15;91.84
75891;BME280;64571;47.512;19.054;2024-02-26T10:00:30;99681.06;;;12.23;91.95
75891;BME280;64571;47.512;19.054;2024-02-26T10:03:41;99679.25;;;12.01;92.54
75891;BME280;64571;47.512;19.054;2024-02-26T10:06:46;99682.38;;;12.16;92.76
75891;BME280;64571;47.512;19.054;2024-02-26T10:09:49;99680.44;;;12.26;91.95
75891;BME280;64571;47.512;19.054;2024-02-26T10:12:52;99675.00;;;12.12;92.78
75891;BME280;64571;47.512;19.054;2024-02-26T10:15:55;99678.63;;;12.12;93.28
75891;BME280;64571;47.512;19.054;2024-02-26T10:18:57;99669.75;;;12.19;92.31
75891;BME280;64571;47.512;19.054;2024-02-26T10:22:02;99678.91;;;12.11;93.14
75891;BME280;64571;47.512;19.054;2024-02-26T10:25:06;99660.91;;;12.17;92.58
75891;BME280;64571;47.512;19.054;2024-02-26T10:28:11;99682.88;;;12.45;92.38
75891;BME280;64571;47.512;19.054;2024-02-26T10:31:14;99670.28;;;12.38;91.59
75891;BME280;64571;47.512;19.054;2024-02-26T10:34:17;99671.22;;;12.68;91.19
75891;BME280;64571;47.512;19.054;2024-02-26T10:37:20;99658.34;;;13.02;88.94
75891;BME280;64571;47.512;19.054;2024-02-26T10:40:22;99643.75;;;12.97;87.27
75891;BME280;64571;47.512;19.054;2024-02-26T10:43:25;99663.53;;;13.21;85.51
75891;BME280;64571;47.512;19.054;2024-02-26T10:46:28;99664.16;;;13.35;84.35
75891;BME280;64571;47.512;19.054;2024-02-26T10:49:32;99639.78;;;13.15;83.39
75891;BME280;64571;47.512;19.054;2024-02-26T10:52:37;99651.53;;;13.38;83.79
75891;BME280;64571;47.512;19.054;2024-02-26T10:55:39;99642.59;;;13.45;83.52
75891;BME280;64571;47.512;19.054;2024-02-26T10:58:43;99636.28;;;13.65;83.04
75891;BME280;64571;47.512;19.054;2024-02-26T11:01:48;99640.19;;;13.64;83.41
75891;BME280;64571;47.512;19.054;2024-02-26T11:04:52;99618.59;;;13.52;83.54
75891;BME280;64571;47.512;19.054;2024-02-26T11:07:55;99639.78;;;13.53;82.94
75891;BME280;64571;47.512;19.054;2024-02-26T11:10:59;99616.84;;;13.68;82.14
75891;BME280;64571;47.512;19.054;2024-02-26T11:14:03;99619.37;;;13.82;81.70
75891;BME280;64571;47.512;19.054;2024-02-26T11:17:07;99622.88;;;14.00;80.37
75891;BME280;64571;47.512;19.054;2024-02-26T11:20:11;99629.56;;;14.08;80.09
75891;BME280;64571;47.512;19.054;2024-02-26T11:23:16;99620.91;;;14.01;79.32
75891;BME280;64571;47.512;19.054;2024-02-26T11:26:20;99619.00;;;14.13;78.91
75891;BME280;64571;47.512;19.054;2024-02-26T11:29:26;99624.50;;;14.22;78.47
75891;BME280;64571;47.512;19.054;2024-02-26T11:32:30;99620.37;;;14.07;78.41
75891;BME280;64571;47.512;19.054;2024-02-26T11:35:34;99640.38;;;14.30;78.10
75891;BME280;64571;47.512;19.054;2024-02-26T11:38:38;99614.91;;;14.11;77.70
75891;BME280;64571;47.512;19.054;2024-02-26T11:41:41;99629.75;;;14.03;77.24
75891;BME280;64571;47.512;19.054;2024-02-26T11:44:44;99634.13;;;13.91;78.42
75891;BME280;64571;47.512;19.054;2024-02-26T11:47:56;99635.87;;;13.75;80.08
75891;BME280;64571;47.512;19.054;2024-02-26T11:50:58;99622.66;;;13.84;79.28
75891;BME280;64571;47.512;19.054;2024-02-26T11:54:01;99611.38;;;14.02;77.96
75891;BME280;64571;47.512;19.054;2024-02-26T11:57:04;99637.28;;;14.11;77.07
75891;BME280;64571;47.512;19.054;2024-02-26T12:00:22;99614.59;;;13.91;78.17
75891;BME280;64571;47.512;19.054;2024-02-26T12:03:26;99635.66;;;14.10;78.60
75891;BME280;64571;47.512;19.054;2024-02-26T12:06:29;99620.22;;;14.04;78.61
75891;BME280;64571;47.512;19.054;2024-02-26T12:12:35;99631.69;;;14.11;78.36
75891;BME280;64571;47.512;19.054;2024-02-26T12:15:41;99613.91;;;14.15;78.15
75891;BME280;64571;47.512;19.054;2024-02-26T12:18:44;99630.16;;;14.34;78.16
75891;BME280;64571;47.512;19.054;2024-02-26T12:21:52;99619.94;;;14.17;78.30
75891;BME280;64571;47.512;19.054;2024-02-26T12:25:00;99609.31;;;14.11;78.14
75891;BME280;64571;47.512;19.054;2024-02-26T12:28:04;99610.53;;;14.43;77.10
75891;BME280;64571;47.512;19.054;2024-02-26T12:31:06;99614.09;;;14.52;76.06
75891;BME280;64571;47.512;19.054;2024-02-26T12:34:09;99613.31;;;14.43;74.97
75891;BME280;64571;47.512;19.054;2024-02-26T12:37:12;99621.25;;;14.41;74.70
75891;BME280;64571;47.512;19.054;2024-02-26T12:40:17;99605.37;;;14.12;74.92
75891;BME280;64571;47.512;19.054;2024-02-26T12:43:19;99630.66;;;14.36;74.91
75891;BME280;64571;47.512;19.054;2024-02-26T12:46:22;99604.66;;;14.36;75.01
75891;BME280;64571;47.512;19.054;2024-02-26T12:49:24;99621.66;;;14.52;75.17
75891;BME280;64571;47.512;19.054;2024-02-26T12:52:28;99626.09;;;14.53;75.20
75891;BME280;64571;47.512;19.054;2024-02-26T12:55:31;99625.25;;;14.31;75.45
75891;BME280;64571;47.512;19.054;2024-02-26T12:58:38;99620.75;;;14.39;74.88
75891;BME280;64571;47.512;19.054;2024-02-26T13:01:42;99598.59;;;14.55;73.30
75891;BME280;64571;47.512;19.054;2024-02-26T13:04:45;99620.91;;;14.63;73.36
75891;BME280;64571;47.512;19.054;2024-02-26T13:07:47;99627.59;;;14.83;72.80
75891;BME280;64571;47.512;19.054;2024-02-26T13:10:51;99618.88;;;14.97;72.65
75891;BME280;64571;47.512;19.054;2024-02-26T13:13:54;99624.09;;;14.86;72.35
75891;BME280;64571;47.512;19.054;2024-02-26T13:16:57;99623.56;;;14.72;73.29
75891;BME280;64571;47.512;19.054;2024-02-26T13:20:00;99627.81;;;14.78;73.42
75891;BME280;64571;47.512;19.054;2024-02-26T13:23:04;99622.88;;;14.75;72.72
75891;BME280;64571;47.512;19.054;2024-02-26T13:26:09;99613.25;;;14.85;72.68
75891;BME280;64571;47.512;19.054;2024-02-26T13:29:18;99608.66;;;14.68;72.74
75891;BME280;64571;47.512;19.054;2024-02-26T13:32:21;99601.47;;;14.79;72.70
75891;BME280;64571;47.512;19.054;2024-02-26T13:35:24;99600.00;;;15.18;70.44
75891;BME280;64571;47.512;19.054;2024-02-26T13:38:27;99615.06;;;15.51;70.18
75891;BME280;64571;47.512;19.054;2024-02-26T13:41:30;99605.03;;;15.37;69.45
75891;BME280;64571;47.512;19.054;2024-02-26T13:44:34;99619.75;;;15.59;69.07
75891;BME280;64571;47.512;19.054;2024-02-26T13:47:42;99619.97;;;15.54;69.48
75891;BME280;64571;47.512;19.054;2024-02-26T13:50:44;99623.34;;;15.59;69.28
75891;BME280;64571;47.512;19.054;2024-02-26T13:53:49;99608.16;;;15.48;69.85
75891;BME280;64571;47.512;19.054;2024-02-26T13:56:51;99607.47;;;15.14;70.11
75891;BME280;64571;47.512;19.054;2024-02-26T13:59:55;99613.16;;;15.06;70.93
75891;BME280;64571;47.512;19.054;2024-02-26T14:02:58;99609.69;;;15.09;71.26
75891;BME280;64571;47.512;19.054;2024-02-26T14:06:01;99596.84;;;15.08;68.97
75891;BME280;64571;47.512;19.054;2024-02-26T14:09:04;99599.13;;;14.81;70.40
75891;BME280;64571;47.512;19.054;2024-02-26T14:12:07;99596.13;;;14.99;70.63
75891;BME280;64571;47.512;19.054;2024-02-26T14:15:10;99603.97;;;15.05;70.63
75891;BME280;64571;47.512;19.054;2024-02-26T14:18:13;99602.91;;;15.10;69.84
75891;BME280;64571;47.512;19.054;2024-02-26T14:21:16;99586.34;;;14.92;70.14
75891;BME280;64571;47.512;19.054;2024-02-26T14:24:19;99590.69;;;15.14;69.21
75891;BME280;64571;47.512;19.054;2024-02-26T14:27:21;99592.56;;;15.23;68.93
75891;BME280;64571;47.512;19.054;2024-02-26T14:30:25;99600.34;;;15.29;68.91
75891;BME280;64571;47.512;19.054;2024-02-26T14:33:29;99595.81;;;15.25;69.07
75891;BME280;64571;47.512;19.054;2024-02-26T14:36:31;99599.09;;;15.27;69.00
75891;BME280;64571;47.512;19.054;2024-02-26T14:39:34;99597.22;;;15.18;69.15
75891;BME280;64571;47.512;19.054;2024-02-26T14:42:37;99594.41;;;15.18;69.68
75891;BME280;64571;47.512;19.054;2024-02-26T14:45:40;99588.09;;;15.09;70.12
75891;BME280;64571;47.512;19.054;2024-02-26T14:48:43;99583.78;;;15.00;70.51
75891;BME280;64571;47.512;19.054;2024-02-26T14:51:46;99603.16;;;15.05;70.62
75891;BME280;64571;47.512;19.054;2024-02-26T14:54:48;99599.19;;;15.06;70.96
75891;BME280;64571;47.512;19.054;2024-02-26T14:57:53;99593.59;;;15.06;70.79
75891;BME280;64571;47.512;19.054;2024-02-26T15:00:56;99600.81;;;15.07;71.08
75891;BME280;64571;47.512;19.054;2024-02-26T15:03:59;99600.34;;;15.05;71.27
75891;BME280;64571;47.512;19.054;2024-02-26T15:07:03;99584.72;;;14.91;71.00
75891;BME280;64571;47.512;19.054;2024-02-26T15:10:06;99586.31;;;14.80;71.61
75891;BME280;64571;47.512;19.054;2024-02-26T15:13:09;99604.94;;;14.76;72.15
75891;BME280;64571;47.512;19.054;2024-02-26T15:16:18;99604.72;;;14.69;72.37
75891;BME280;64571;47.512;19.054;2024-02-26T15:19:23;99598.13;;;14.53;72.91
75891;BME280;64571;47.512;19.054;2024-02-26T15:22:25;99615.94;;;14.48;73.31
75891;BME280;64571;47.512;19.054;2024-02-26T15:25:29;99601.53;;;14.37;73.76
75891;BME280;64571;47.512;19.054;2024-02-26T15:28:31;99615.66;;;14.41;74.18
75891;BME280;64571;47.512;19.054;2024-02-26T15:31:35;99603.59;;;14.28;74.61
75891;BME280;64571;47.512;19.054;2024-02-26T15:34:37;99615.59;;;14.29;74.73
75891;BME280;64571;47.512;19.054;2024-02-26T15:37:40;99616.41;;;14.29;75.03
75891;BME280;64571;47.512;19.054;2024-02-26T15:40:43;99618.72;;;14.27;75.32
75891;BME280;64571;47.512;19.054;2024-02-26T15:43:47;99616.62;;;14.24;75.80
75891;BME280;64571;47.512;19.054;2024-02-26T15:46:49;99610.13;;;14.11;75.88
75891;BME280;64571;47.512;19.054;2024-02-26T15:49:52;99631.00;;;14.14;76.39
75891;BME280;64571;47.512;19.054;2024-02-26T15:52:55;99640.53;;;14.13;76.34
75891;BME280;64571;47.512;19.054;2024-02-26T15:55:58;99635.97;;;14.08;76.58
75891;BME280;64571;47.512;19.054;2024-02-26T15:59:01;99633.03;;;14.05;76.93